sensor_id;sensor_type;location;lat;lon;timestamp;P1;durP1;ratioP1;P2;durP2;ratioP2
67696;SDS011;54486;51.442;6.778;2023-07-16T00:01:21;6.13;;;1.83;;
67696;SDS011;54486;51.442;6.778;2023-07-16T00:03:48;6.20;;;1.70;;
67696;SDS011;54486;51.442;6.778;2023-07-16T00:06:15;8.50;;;1.70;;
67696;SDS011;54486;51.442;6.778;2023-07-16T00:08:43;6.22;;;1.48;;
67696;SDS011;54486;51.442;6.778;2023-07-16T00:11:10;7.53;;;2.00;;
67696;SDS011;54486;51.442;6.778;2023-07-16T00:13:39;7.67;;;2.33;;
67696;SDS011;54486;51.442;6.778;2023-07-16T00:16:13;7.50;;;1.88;;
67696;SDS011;54486;51.442;6.778;2023-07-16T00:18:41;6.45;;;1.80;;
67696;SDS011;54486;51.442;6.778;2023-07-16T00:21:11;8.35;;;1.80;;
67696;SDS011;54486;51.442;6.778;2023-07-16T00:23:38;6.65;;;1.73;;
67696;SDS011;54486;51.442;6.778;2023-07-16T00:26:06;6.72;;;1.55;;
67696;SDS011;54486;51.442;6.778;2023-07-16T00:28:33;6.85;;;1.85;;
67696;SDS011;54486;51.442;6.778;2023-07-16T00:31:00;7.07;;;1.98;;
67696;SDS011;54486;51.442;6.778;2023-07-16T00:33:28;7.63;;;2.10;;
67696;SDS011;54486;51.442;6.778;2023-07-16T00:35:56;7.35;;;2.13;;
67696;SDS011;54486;51.442;6.778;2023-07-16T00:38:23;7.18;;;2.05;;
67696;SDS011;54486;51.442;6.778;2023-07-16T00:40:51;7.28;;;1.88;;
67696;SDS011;54486;51.442;6.778;2023-07-16T00:43:18;7.40;;;1.90;;
67696;SDS011;54486;51.442;6.778;2023-07-16T00:45:46;6.88;;;2.03;;
67696;SDS011;54486;51.442;6.778;2023-07-16T00:48:13;7.20;;;2.00;;
67696;SDS011;54486;51.442;6.778;2023-07-16T00:50:41;6.93;;;2.03;;
67696;SDS011;54486;51.442;6.778;2023-07-16T00:53:09;7.60;;;1.95;;
67696;SDS011;54486;51.442;6.778;2023-07-16T00:55:36;7.40;;;2.10;;
67696;SDS011;54486;51.442;6.778;2023-07-16T00:58:05;7.63;;;2.10;;
67696;SDS011;54486;51.442;6.778;2023-07-16T01:00:37;7.60;;;2.10;;
67696;SDS011;54486;51.442;6.778;2023-07-16T01:03:06;7.67;;;2.27;;
67696;SDS011;54486;51.442;6.778;2023-07-16T01:05:38;8.23;;;2.05;;
67696;SDS011;54486;51.442;6.778;2023-07-16T01:08:24;8.60;;;2.42;;
67696;SDS011;54486;51.442;6.778;2023-07-16T01:11:08;7.72;;;2.30;;
67696;SDS011;54486;51.442;6.778;2023-07-16T01:13:36;8.43;;;2.47;;
67696;SDS011;54486;51.442;6.778;2023-07-16T01:16:02;7.70;;;2.15;;
67696;SDS011;54486;51.442;6.778;2023-07-16T01:18:29;7.03;;;2.10;;
67696;SDS011;54486;51.442;6.778;2023-07-16T01:20:57;7.03;;;2.03;;
67696;SDS011;54486;51.442;6.778;2023-07-16T01:31:42;6.55;;;1.80;;
67696;SDS011;54486;51.442;6.778;2023-07-16T01:34:12;7.75;;;2.05;;
67696;SDS011;54486;51.442;6.778;2023-07-16T01:36:41;6.70;;;1.90;;
67696;SDS011;54486;51.442;6.778;2023-07-16T01:39:09;7.63;;;2.00;;
67696;SDS011;54486;51.442;6.778;2023-07-16T01:41:36;8.45;;;1.92;;
67696;SDS011;54486;51.442;6.778;2023-07-16T01:44:03;8.38;;;2.03;;
67696;SDS011;54486;51.442;6.778;2023-07-16T01:46:30;7.85;;;2.20;;
67696;SDS011;54486;51.442;6.778;2023-07-16T01:48:57;7.97;;;2.00;;
67696;SDS011;54486;51.442;6.778;2023-07-16T01:51:25;6.40;;;2.05;;
67696;SDS011;54486;51.442;6.778;2023-07-16T01:53:52;7.95;;;1.92;;
67696;SDS011;54486;51.442;6.778;2023-07-16T01:56:19;8.48;;;2.10;;
67696;SDS011;54486;51.442;6.778;2023-07-16T01:58:46;8.10;;;2.22;;
67696;SDS011;54486;51.442;6.778;2023-07-16T02:01:14;7.90;;;2.05;;
67696;SDS011;54486;51.442;6.778;2023-07-16T02:03:41;8.35;;;1.98;;
67696;SDS011;54486;51.442;6.778;2023-07-16T02:06:08;7.72;;;2.20;;
67696;SDS011;54486;51.442;6.778;2023-07-16T02:08:37;7.45;;;2.10;;
67696;SDS011;54486;51.442;6.778;2023-07-16T02:11:04;7.95;;;1.90;;
67696;SDS011;54486;51.442;6.778;2023-07-16T02:13:30;7.85;;;2.10;;
67696;SDS011;54486;51.442;6.778;2023-07-16T02:15:57;7.45;;;1.95;;
67696;SDS011;54486;51.442;6.778;2023-07-16T02:18:24;7.57;;;2.20;;
67696;SDS011;54486;51.442;6.778;2023-07-16T02:20:51;7.18;;;2.10;;
67696;SDS011;54486;51.442;6.778;2023-07-16T02:23:18;7.35;;;2.10;;
67696;SDS011;54486;51.442;6.778;2023-07-16T02:25:46;7.38;;;2.20;;
67696;SDS011;54486;51.442;6.778;2023-07-16T02:28:13;8.77;;;2.30;;
67696;SDS011;54486;51.442;6.778;2023-07-16T02:30:40;9.20;;;2.15;;
67696;SDS011;54486;51.442;6.778;2023-07-16T02:33:07;9.32;;;2.58;;
67696;SDS011;54486;51.442;6.778;2023-07-16T02:35:34;10.70;;;2.72;;
67696;SDS011;54486;51.442;6.778;2023-07-16T02:38:01;8.57;;;2.50;;
67696;SDS011;54486;51.442;6.778;2023-07-16T02:40:28;7.35;;;2.45;;
67696;SDS011;54486;51.442;6.778;2023-07-16T02:42:56;9.43;;;2.50;;
67696;SDS011;54486;51.442;6.778;2023-07-16T02:45:23;7.80;;;2.35;;
67696;SDS011;54486;51.442;6.778;2023-07-16T02:47:49;8.52;;;2.60;;
67696;SDS011;54486;51.442;6.778;2023-07-16T02:50:17;8.27;;;2.45;;
67696;SDS011;54486;51.442;6.778;2023-07-16T02:52:44;8.73;;;2.28;;
67696;SDS011;54486;51.442;6.778;2023-07-16T02:55:11;7.70;;;2.57;;
67696;SDS011;54486;51.442;6.778;2023-07-16T02:57:37;7.95;;;2.40;;
67696;SDS011;54486;51.442;6.778;2023-07-16T03:00:05;8.15;;;2.30;;
67696;SDS011;54486;51.442;6.778;2023-07-16T03:02:32;9.25;;;2.50;;
67696;SDS011;54486;51.442;6.778;2023-07-16T03:04:59;7.35;;;2.17;;
67696;SDS011;54486;51.442;6.778;2023-07-16T03:07:27;7.70;;;2.20;;
67696;SDS011;54486;51.442;6.778;2023-07-16T03:09:53;8.32;;;2.20;;
67696;SDS011;54486;51.442;6.778;2023-07-16T03:12:20;9.33;;;2.20;;
67696;SDS011;54486;51.442;6.778;2023-07-16T03:14:49;9.87;;;2.27;;
67696;SDS011;54486;51.442;6.778;2023-07-16T03:17:17;6.70;;;2.08;;
67696;SDS011;54486;51.442;6.778;2023-07-16T03:19:44;8.73;;;2.70;;
67696;SDS011;54486;51.442;6.778;2023-07-16T03:22:11;7.65;;;2.50;;
67696;SDS011;54486;51.442;6.778;2023-07-16T03:24:38;9.95;;;2.72;;
67696;SDS011;54486;51.442;6.778;2023-07-16T03:27:06;9.52;;;2.58;;
67696;SDS011;54486;51.442;6.778;2023-07-16T03:29:44;10.32;;;2.47;;
67696;SDS011;54486;51.442;6.778;2023-07-16T03:32:11;7.45;;;2.33;;
67696;SDS011;54486;51.442;6.778;2023-07-16T03:34:37;9.02;;;2.42;;
67696;SDS011;54486;51.442;6.778;2023-07-16T03:37:06;8.60;;;2.60;;
67696;SDS011;54486;51.442;6.778;2023-07-16T03:39:33;11.60;;;3.00;;
67696;SDS011;54486;51.442;6.778;2023-07-16T03:42:00;8.48;;;2.50;;
67696;SDS011;54486;51.442;6.778;2023-07-16T03:44:27;8.07;;;2.22;;
67696;SDS011;54486;51.442;6.778;2023-07-16T03:46:56;9.20;;;2.30;;
67696;SDS011;54486;51.442;6.778;2023-07-16T03:49:23;9.77;;;2.53;;
67696;SDS011;54486;51.442;6.778;2023-07-16T03:51:50;9.20;;;2.28;;
67696;SDS011;54486;51.442;6.778;2023-07-16T03:54:17;8.45;;;2.38;;
67696;SDS011;54486;51.442;6.778;2023-07-16T03:56:44;9.25;;;2.35;;
67696;SDS011;54486;51.442;6.778;2023-07-16T03:59:11;10.18;;;2.17;;
67696;SDS011;54486;51.442;6.778;2023-07-16T04:01:37;8.32;;;2.08;;
67696;SDS011;54486;51.442;6.778;2023-07-16T04:04:04;8.70;;;2.40;;
67696;SDS011;54486;51.442;6.778;2023-07-16T04:06:32;9.02;;;2.20;;
67696;SDS011;54486;51.442;6.778;2023-07-16T04:09:00;10.07;;;2.87;;
67696;SDS011;54486;51.442;6.778;2023-07-16T04:11:27;7.75;;;2.30;;
67696;SDS011;54486;51.442;6.778;2023-07-16T04:13:54;7.93;;;2.10;;
67696;SDS011;54486;51.442;6.778;2023-07-16T04:16:21;8.07;;;2.50;;
67696;SDS011;54486;51.442;6.778;2023-07-16T04:18:47;10.48;;;2.67;;
67696;SDS011;54486;51.442;6.778;2023-07-16T04:21:14;9.63;;;2.67;;
67696;SDS011;54486;51.442;6.778;2023-07-16T04:23:41;8.90;;;2.53;;
67696;SDS011;54486;51.442;6.778;2023-07-16T04:26:08;9.57;;;2.50;;
67696;SDS011;54486;51.442;6.778;2023-07-16T04:28:35;7.57;;;2.17;;
67696;SDS011;54486;51.442;6.778;2023-07-16T04:31:02;9.30;;;2.40;;
67696;SDS011;54486;51.442;6.778;2023-07-16T04:33:29;7.63;;;2.17;;
67696;SDS011;54486;51.442;6.778;2023-07-16T04:35:56;9.95;;;2.58;;
67696;SDS011;54486;51.442;6.778;2023-07-16T04:38:23;9.27;;;2.40;;
67696;SDS011;54486;51.442;6.778;2023-07-16T04:40:50;9.50;;;2.20;;
67696;SDS011;54486;51.442;6.778;2023-07-16T04:43:17;8.68;;;2.35;;
67696;SDS011;54486;51.442;6.778;2023-07-16T04:45:44;10.05;;;2.60;;
67696;SDS011;54486;51.442;6.778;2023-07-16T04:48:13;9.77;;;2.40;;
67696;SDS011;54486;51.442;6.778;2023-07-16T04:50:40;8.48;;;2.40;;
67696;SDS011;54486;51.442;6.778;2023-07-16T04:53:07;9.00;;;2.60;;
67696;SDS011;54486;51.442;6.778;2023-07-16T04:55:35;11.52;;;2.83;;
67696;SDS011;54486;51.442;6.778;2023-07-16T04:58:03;8.48;;;2.30;;
67696;SDS011;54486;51.442;6.778;2023-07-16T05:00:31;9.35;;;2.30;;
67696;SDS011;54486;51.442;6.778;2023-07-16T05:03:00;10.50;;;2.20;;
67696;SDS011;54486;51.442;6.778;2023-07-16T05:05:27;9.80;;;2.45;;
67696;SDS011;54486;51.442;6.778;2023-07-16T05:07:54;10.40;;;2.83;;
67696;SDS011;54486;51.442;6.778;2023-07-16T05:10:21;7.60;;;2.10;;
67696;SDS011;54486;51.442;6.778;2023-07-16T05:12:48;7.82;;;2.10;;
67696;SDS011;54486;51.442;6.778;2023-07-16T05:15:15;8.60;;;2.33;;
67696;SDS011;54486;51.442;6.778;2023-07-16T05:17:42;9.60;;;2.47;;
67696;SDS011;54486;51.442;6.778;2023-07-16T05:20:10;10.25;;;2.75;;
67696;SDS011;54486;51.442;6.778;2023-07-16T05:22:37;10.85;;;2.50;;
67696;SDS011;54486;51.442;6.778;2023-07-16T05:25:06;9.25;;;2.78;;
67696;SDS011;54486;51.442;6.778;2023-07-16T05:27:33;10.93;;;2.70;;
67696;SDS011;54486;51.442;6.778;2023-07-16T05:30:00;10.00;;;2.38;;
67696;SDS011;54486;51.442;6.778;2023-07-16T05:32:28;13.00;;;2.93;;
67696;SDS011;54486;51.442;6.778;2023-07-16T05:34:55;8.80;;;2.70;;
67696;SDS011;54486;51.442;6.778;2023-07-16T05:37:22;10.02;;;3.28;;
67696;SDS011;54486;51.442;6.778;2023-07-16T05:39:49;10.48;;;2.38;;
67696;SDS011;54486;51.442;6.778;2023-07-16T05:42:16;11.20;;;3.47;;
67696;SDS011;54486;51.442;6.778;2023-07-16T05:44:43;8.65;;;2.55;;
67696;SDS011;54486;51.442;6.778;2023-07-16T05:47:11;10.02;;;2.40;;
67696;SDS011;54486;51.442;6.778;2023-07-16T05:49:38;8.45;;;2.67;;
67696;SDS011;54486;51.442;6.778;2023-07-16T05:52:05;12.55;;;2.65;;
67696;SDS011;54486;51.442;6.778;2023-07-16T05:54:33;9.32;;;2.40;;
67696;SDS011;54486;51.442;6.778;2023-07-16T05:57:00;10.63;;;2.47;;
67696;SDS011;54486;51.442;6.778;2023-07-16T05:59:27;9.80;;;2.58;;
67696;SDS011;54486;51.442;6.778;2023-07-16T06:01:54;10.60;;;2.60;;
67696;SDS011;54486;51.442;6.778;2023-07-16T06:04:24;9.57;;;2.70;;
67696;SDS011;54486;51.442;6.778;2023-07-16T06:06:51;8.85;;;2.47;;
67696;SDS011;54486;51.442;6.778;2023-07-16T06:09:18;9.27;;;2.72;;
67696;SDS011;54486;51.442;6.778;2023-07-16T06:11:46;10.45;;;2.90;;
67696;SDS011;54486;51.442;6.778;2023-07-16T06:14:15;9.05;;;2.70;;
67696;SDS011;54486;51.442;6.778;2023-07-16T06:16:42;9.27;;;2.47;;
67696;SDS011;54486;51.442;6.778;2023-07-16T06:19:10;8.68;;;2.70;;
67696;SDS011;54486;51.442;6.778;2023-07-16T06:21:37;8.75;;;2.85;;
67696;SDS011;54486;51.442;6.778;2023-07-16T06:24:04;9.97;;;2.70;;
67696;SDS011;54486;51.442;6.778;2023-07-16T06:26:31;9.45;;;2.80;;
67696;SDS011;54486;51.442;6.778;2023-07-16T06:28:58;10.15;;;2.78;;
67696;SDS011;54486;51.442;6.778;2023-07-16T06:31:25;8.77;;;2.80;;
67696;SDS011;54486;51.442;6.778;2023-07-16T06:33:52;9.38;;;2.53;;
67696;SDS011;54486;51.442;6.778;2023-07-16T06:36:19;10.25;;;3.10;;
67696;SDS011;54486;51.442;6.778;2023-07-16T06:38:47;9.00;;;3.00;;
67696;SDS011;54486;51.442;6.778;2023-07-16T06:41:14;9.27;;;3.10;;
67696;SDS011;54486;51.442;6.778;2023-07-16T06:43:41;10.20;;;3.10;;
67696;SDS011;54486;51.442;6.778;2023-07-16T06:46:08;10.93;;;3.30;;
67696;SDS011;54486;51.442;6.778;2023-07-16T06:48:35;10.15;;;3.05;;
67696;SDS011;54486;51.442;6.778;2023-07-16T06:51:02;10.60;;;3.35;;
67696;SDS011;54486;51.442;6.778;2023-07-16T06:53:29;9.30;;;3.15;;
67696;SDS011;54486;51.442;6.778;2023-07-16T06:55:57;10.93;;;3.20;;
67696;SDS011;54486;51.442;6.778;2023-07-16T06:58:31;11.30;;;3.00;;
67696;SDS011;54486;51.442;6.778;2023-07-16T07:01:02;8.60;;;3.10;;
67696;SDS011;54486;51.442;6.778;2023-07-16T07:03:29;9.48;;;3.03;;
67696;SDS011;54486;51.442;6.778;2023-07-16T07:05:56;9.52;;;3.15;;
67696;SDS011;54486;51.442;6.778;2023-07-16T07:08:23;9.95;;;2.83;;
67696;SDS011;54486;51.442;6.778;2023-07-16T07:10:50;8.30;;;3.20;;
67696;SDS011;54486;51.442;6.778;2023-07-16T07:13:17;9.30;;;3.20;;
67696;SDS011;54486;51.442;6.778;2023-07-16T07:15:45;10.57;;;3.40;;
67696;SDS011;54486;51.442;6.778;2023-07-16T07:18:12;10.13;;;2.78;;
67696;SDS011;54486;51.442;6.778;2023-07-16T07:20:40;9.35;;;2.88;;
67696;SDS011;54486;51.442;6.778;2023-07-16T07:23:07;10.73;;;3.17;;
67696;SDS011;54486;51.442;6.778;2023-07-16T07:25:34;9.23;;;3.27;;
67696;SDS011;54486;51.442;6.778;2023-07-16T07:28:02;9.93;;;3.20;;
67696;SDS011;54486;51.442;6.778;2023-07-16T07:30:30;9.15;;;3.40;;
67696;SDS011;54486;51.442;6.778;2023-07-16T07:32:57;10.23;;;3.15;;
67696;SDS011;54486;51.442;6.778;2023-07-16T07:35:24;10.98;;;3.15;;
67696;SDS011;54486;51.442;6.778;2023-07-16T07:37:51;9.93;;;3.35;;
67696;SDS011;54486;51.442;6.778;2023-07-16T07:40:18;12.07;;;3.15;;
67696;SDS011;54486;51.442;6.778;2023-07-16T07:42:46;8.82;;;2.97;;
67696;SDS011;54486;51.442;6.778;2023-07-16T07:45:13;10.98;;;3.55;;
67696;SDS011;54486;51.442;6.778;2023-07-16T07:47:41;9.43;;;3.50;;
67696;SDS011;54486;51.442;6.778;2023-07-16T07:50:09;11.32;;;3.20;;
67696;SDS011;54486;51.442;6.778;2023-07-16T07:52:37;9.77;;;3.10;;
67696;SDS011;54486;51.442;6.778;2023-07-16T07:55:04;10.48;;;3.13;;
67696;SDS011;54486;51.442;6.778;2023-07-16T07:57:31;14.10;;;3.22;;
67696;SDS011;54486;51.442;6.778;2023-07-16T07:59:58;10.05;;;3.00;;
67696;SDS011;54486;51.442;6.778;2023-07-16T08:02:26;11.52;;;3.25;;
67696;SDS011;54486;51.442;6.778;2023-07-16T08:04:53;10.33;;;3.33;;
67696;SDS011;54486;51.442;6.778;2023-07-16T08:07:27;10.43;;;3.30;;
67696;SDS011;54486;51.442;6.778;2023-07-16T08:09:55;13.18;;;3.45;;
67696;SDS011;54486;51.442;6.778;2023-07-16T08:12:22;8.98;;;3.15;;
67696;SDS011;54486;51.442;6.778;2023-07-16T08:14:49;11.38;;;2.85;;
67696;SDS011;54486;51.442;6.778;2023-07-16T08:17:17;9.55;;;3.15;;
67696;SDS011;54486;51.442;6.778;2023-07-16T08:19:47;8.55;;;2.88;;
67696;SDS011;54486;51.442;6.778;2023-07-16T08:22:14;9.85;;;3.30;;
67696;SDS011;54486;51.442;6.778;2023-07-16T08:24:41;9.30;;;3.15;;
67696;SDS011;54486;51.442;6.778;2023-07-16T08:27:08;9.63;;;3.13;;
67696;SDS011;54486;51.442;6.778;2023-07-16T08:29:35;9.80;;;3.17;;
67696;SDS011;54486;51.442;6.778;2023-07-16T08:32:03;10.80;;;3.28;;
67696;SDS011;54486;51.442;6.778;2023-07-16T08:34:30;9.60;;;3.15;;
67696;SDS011;54486;51.442;6.778;2023-07-16T08:36:57;9.45;;;3.22;;
67696;SDS011;54486;51.442;6.778;2023-07-16T08:39:24;11.25;;;3.30;;
67696;SDS011;54486;51.442;6.778;2023-07-16T08:41:52;9.55;;;3.47;;
67696;SDS011;54486;51.442;6.778;2023-07-16T08:44:20;11.60;;;3.40;;
67696;SDS011;54486;51.442;6.778;2023-07-16T08:46:47;10.90;;;3.70;;
67696;SDS011;54486;51.442;6.778;2023-07-16T08:49:14;11.50;;;3.70;;
67696;SDS011;54486;51.442;6.778;2023-07-16T08:51:48;9.85;;;2.92;;
67696;SDS011;54486;51.442;6.778;2023-07-16T08:54:16;12.10;;;3.78;;
67696;SDS011;54486;51.442;6.778;2023-07-16T08:56:44;10.20;;;3.35;;
67696;SDS011;54486;51.442;6.778;2023-07-16T08:59:12;10.05;;;3.28;;
67696;SDS011;54486;51.442;6.778;2023-07-16T09:01:41;11.68;;;3.63;;
67696;SDS011;54486;51.442;6.778;2023-07-16T09:04:08;9.50;;;2.90;;
67696;SDS011;54486;51.442;6.778;2023-07-16T09:06:35;10.25;;;3.20;;
67696;SDS011;54486;51.442;6.778;2023-07-16T09:09:02;10.27;;;3.00;;
67696;SDS011;54486;51.442;6.778;2023-07-16T09:11:29;9.10;;;3.25;;
67696;SDS011;54486;51.442;6.778;2023-07-16T09:13:56;11.85;;;3.30;;
67696;SDS011;54486;51.442;6.778;2023-07-16T09:16:23;9.50;;;3.10;;
67696;SDS011;54486;51.442;6.778;2023-07-16T09:18:50;10.65;;;3.05;;
67696;SDS011;54486;51.442;6.778;2023-07-16T09:21:17;9.10;;;3.20;;
67696;SDS011;54486;51.442;6.778;2023-07-16T09:23:44;9.57;;;2.85;;
67696;SDS011;54486;51.442;6.778;2023-07-16T09:26:11;10.13;;;2.85;;
67696;SDS011;54486;51.442;6.778;2023-07-16T09:28:38;9.85;;;3.05;;
67696;SDS011;54486;51.442;6.778;2023-07-16T09:31:06;11.57;;;3.47;;
67696;SDS011;54486;51.442;6.778;2023-07-16T09:33:34;9.32;;;3.10;;
67696;SDS011;54486;51.442;6.778;2023-07-16T09:36:01;9.68;;;3.00;;
67696;SDS011;54486;51.442;6.778;2023-07-16T09:38:29;9.13;;;2.73;;
67696;SDS011;54486;51.442;6.778;2023-07-16T09:40:56;9.98;;;2.90;;
67696;SDS011;54486;51.442;6.778;2023-07-16T09:43:24;10.27;;;3.10;;
67696;SDS011;54486;51.442;6.778;2023-07-16T09:45:51;7.45;;;2.30;;
67696;SDS011;54486;51.442;6.778;2023-07-16T09:48:19;8.88;;;2.95;;
67696;SDS011;54486;51.442;6.778;2023-07-16T09:50:51;8.27;;;2.40;;
67696;SDS011;54486;51.442;6.778;2023-07-16T09:53:20;8.88;;;2.95;;
67696;SDS011;54486;51.442;6.778;2023-07-16T09:55:50;10.75;;;3.25;;
67696;SDS011;54486;51.442;6.778;2023-07-16T09:58:19;9.80;;;2.75;;
67696;SDS011;54486;51.442;6.778;2023-07-16T10:00:49;8.75;;;2.75;;
67696;SDS011;54486;51.442;6.778;2023-07-16T10:03:17;10.50;;;2.92;;
67696;SDS011;54486;51.442;6.778;2023-07-16T10:05:45;9.18;;;2.97;;
67696;SDS011;54486;51.442;6.778;2023-07-16T10:08:18;9.27;;;3.17;;
67696;SDS011;54486;51.442;6.778;2023-07-16T10:10:48;10.02;;;2.83;;
67696;SDS011;54486;51.442;6.778;2023-07-16T10:13:22;10.15;;;2.88;;
67696;SDS011;54486;51.442;6.778;2023-07-16T10:15:51;9.40;;;2.90;;
67696;SDS011;54486;51.442;6.778;2023-07-16T10:18:25;10.55;;;3.22;;
67696;SDS011;54486;51.442;6.778;2023-07-16T10:21:00;10.63;;;3.42;;
67696;SDS011;54486;51.442;6.778;2023-07-16T10:23:36;9.35;;;2.63;;
67696;SDS011;54486;51.442;6.778;2023-07-16T10:26:07;11.15;;;3.30;;
67696;SDS011;54486;51.442;6.778;2023-07-16T10:28:37;10.18;;;2.85;;
67696;SDS011;54486;51.442;6.778;2023-07-16T10:31:05;8.93;;;2.73;;
67696;SDS011;54486;51.442;6.778;2023-07-16T10:33:35;8.10;;;2.90;;
67696;SDS011;54486;51.442;6.778;2023-07-16T10:36:04;8.57;;;2.97;;
67696;SDS011;54486;51.442;6.778;2023-07-16T10:38:39;8.60;;;2.70;;
67696;SDS011;54486;51.442;6.778;2023-07-16T10:41:08;9.93;;;3.13;;
67696;SDS011;54486;51.442;6.778;2023-07-16T10:43:35;9.13;;;2.95;;
67696;SDS011;54486;51.442;6.778;2023-07-16T10:46:03;9.80;;;2.90;;
67696;SDS011;54486;51.442;6.778;2023-07-16T10:48:30;9.75;;;2.95;;
67696;SDS011;54486;51.442;6.778;2023-07-16T10:50:57;10.45;;;2.80;;
67696;SDS011;54486;51.442;6.778;2023-07-16T10:53:24;8.10;;;2.83;;
67696;SDS011;54486;51.442;6.778;2023-07-16T10:55:51;10.40;;;3.13;;
67696;SDS011;54486;51.442;6.778;2023-07-16T10:58:21;8.65;;;2.92;;
67696;SDS011;54486;51.442;6.778;2023-07-16T11:00:48;8.68;;;2.72;;
67696;SDS011;54486;51.442;6.778;2023-07-16T11:03:15;9.32;;;2.58;;
67696;SDS011;54486;51.442;6.778;2023-07-16T11:05:46;8.20;;;2.78;;
67696;SDS011;54486;51.442;6.778;2023-07-16T11:08:23;8.60;;;2.77;;
67696;SDS011;54486;51.442;6.778;2023-07-16T11:10:55;8.60;;;2.63;;
67696;SDS011;54486;51.442;6.778;2023-07-16T11:13:28;8.38;;;2.40;;
67696;SDS011;54486;51.442;6.778;2023-07-16T11:16:06;9.75;;;2.60;;
67696;SDS011;54486;51.442;6.778;2023-07-16T11:18:34;8.75;;;2.72;;
67696;SDS011;54486;51.442;6.778;2023-07-16T11:21:01;11.30;;;2.50;;
67696;SDS011;54486;51.442;6.778;2023-07-16T11:23:29;7.95;;;2.35;;
67696;SDS011;54486;51.442;6.778;2023-07-16T11:25:56;9.25;;;2.85;;
67696;SDS011;54486;51.442;6.778;2023-07-16T11:28:23;8.55;;;2.55;;
67696;SDS011;54486;51.442;6.778;2023-07-16T11:30:50;8.27;;;2.20;;
67696;SDS011;54486;51.442;6.778;2023-07-16T11:33:17;8.63;;;2.63;;
67696;SDS011;54486;51.442;6.778;2023-07-16T11:35:44;9.65;;;2.85;;
67696;SDS011;54486;51.442;6.778;2023-07-16T11:38:14;8.27;;;2.88;;
67696;SDS011;54486;51.442;6.778;2023-07-16T11:40:41;9.13;;;2.58;;
67696;SDS011;54486;51.442;6.778;2023-07-16T11:43:09;8.70;;;2.80;;
67696;SDS011;54486;51.442;6.778;2023-07-16T11:45:37;8.45;;;2.75;;
67696;SDS011;54486;51.442;6.778;2023-07-16T11:48:05;9.77;;;2.90;;
67696;SDS011;54486;51.442;6.778;2023-07-16T11:50:32;7.80;;;2.67;;
67696;SDS011;54486;51.442;6.778;2023-07-16T11:53:00;8.57;;;2.80;;
67696;SDS011;54486;51.442;6.778;2023-07-16T11:55:30;8.70;;;2.78;;
67696;SDS011;54486;51.442;6.778;2023-07-16T11:57:57;8.77;;;2.58;;
67696;SDS011;54486;51.442;6.778;2023-07-16T12:00:26;9.98;;;2.83;;
67696;SDS011;54486;51.442;6.778;2023-07-16T12:02:53;10.13;;;3.00;;
67696;SDS011;54486;51.442;6.778;2023-07-16T12:05:21;7.95;;;2.70;;
67696;SDS011;54486;51.442;6.778;2023-07-16T12:08:08;8.57;;;2.70;;
67696;SDS011;54486;51.442;6.778;2023-07-16T12:10:41;7.93;;;2.25;;
67696;SDS011;54486;51.442;6.778;2023-07-16T12:13:08;8.30;;;2.77;;
67696;SDS011;54486;51.442;6.778;2023-07-16T12:15:35;8.60;;;2.40;;
67696;SDS011;54486;51.442;6.778;2023-07-16T12:18:02;9.70;;;2.60;;
67696;SDS011;54486;51.442;6.778;2023-07-16T12:20:30;9.65;;;2.63;;
67696;SDS011;54486;51.442;6.778;2023-07-16T12:22:57;8.65;;;2.72;;
67696;SDS011;54486;51.442;6.778;2023-07-16T12:25:24;8.48;;;2.50;;
67696;SDS011;54486;51.442;6.778;2023-07-16T12:27:52;10.80;;;3.00;;
67696;SDS011;54486;51.442;6.778;2023-07-16T12:30:21;11.20;;;2.67;;
67696;SDS011;54486;51.442;6.778;2023-07-16T12:32:49;8.00;;;2.58;;
67696;SDS011;54486;51.442;6.778;2023-07-16T12:35:16;9.88;;;2.55;;
67696;SDS011;54486;51.442;6.778;2023-07-16T12:37:43;8.60;;;2.50;;
67696;SDS011;54486;51.442;6.778;2023-07-16T12:40:10;9.10;;;2.60;;
67696;SDS011;54486;51.442;6.778;2023-07-16T12:42:39;8.15;;;2.60;;
67696;SDS011;54486;51.442;6.778;2023-07-16T12:45:06;7.97;;;2.40;;
67696;SDS011;54486;51.442;6.778;2023-07-16T12:47:33;8.20;;;2.50;;
67696;SDS011;54486;51.442;6.778;2023-07-16T12:50:00;8.70;;;2.83;;
67696;SDS011;54486;51.442;6.778;2023-07-16T12:52:27;7.78;;;2.60;;
67696;SDS011;54486;51.442;6.778;2023-07-16T12:54:55;8.73;;;2.50;;
67696;SDS011;54486;51.442;6.778;2023-07-16T12:57:24;8.57;;;2.70;;
67696;SDS011;54486;51.442;6.778;2023-07-16T12:59:52;8.50;;;2.60;;
67696;SDS011;54486;51.442;6.778;2023-07-16T13:02:19;8.30;;;2.43;;
67696;SDS011;54486;51.442;6.778;2023-07-16T13:04:47;8.32;;;2.40;;
67696;SDS011;54486;51.442;6.778;2023-07-16T13:07:14;8.55;;;2.60;;
67696;SDS011;54486;51.442;6.778;2023-07-16T13:09:40;8.05;;;2.38;;
67696;SDS011;54486;51.442;6.778;2023-07-16T13:12:08;8.90;;;2.40;;
67696;SDS011;54486;51.442;6.778;2023-07-16T13:14:35;7.18;;;2.38;;
67696;SDS011;54486;51.442;6.778;2023-07-16T13:17:02;9.00;;;2.30;;
67696;SDS011;54486;51.442;6.778;2023-07-16T13:19:30;7.53;;;2.30;;
67696;SDS011;54486;51.442;6.778;2023-07-16T13:21:58;8.57;;;2.10;;
67696;SDS011;54486;51.442;6.778;2023-07-16T13:24:25;7.33;;;2.10;;
67696;SDS011;54486;51.442;6.778;2023-07-16T13:26:52;7.15;;;2.28;;
67696;SDS011;54486;51.442;6.778;2023-07-16T13:29:20;8.75;;;2.20;;
67696;SDS011;54486;51.442;6.778;2023-07-16T13:31:47;7.00;;;2.23;;
67696;SDS011;54486;51.442;6.778;2023-07-16T13:34:14;7.43;;;2.25;;
67696;SDS011;54486;51.442;6.778;2023-07-16T13:36:42;7.03;;;2.10;;
67696;SDS011;54486;51.442;6.778;2023-07-16T13:39:08;7.38;;;2.17;;
67696;SDS011;54486;51.442;6.778;2023-07-16T13:41:36;8.00;;;2.30;;
67696;SDS011;54486;51.442;6.778;2023-07-16T13:44:03;7.00;;;2.17;;
67696;SDS011;54486;51.442;6.778;2023-07-16T13:46:30;7.70;;;2.00;;
67696;SDS011;54486;51.442;6.778;2023-07-16T13:48:58;8.05;;;2.30;;
67696;SDS011;54486;51.442;6.778;2023-07-16T13:51:26;7.10;;;2.13;;
67696;SDS011;54486;51.442;6.778;2023-07-16T13:53:53;7.43;;;2.13;;
67696;SDS011;54486;51.442;6.778;2023-07-16T13:56:21;7.53;;;2.20;;
67696;SDS011;54486;51.442;6.778;2023-07-16T13:58:48;9.15;;;2.38;;
67696;SDS011;54486;51.442;6.778;2023-07-16T14:01:17;7.55;;;2.28;;
67696;SDS011;54486;51.442;6.778;2023-07-16T14:03:45;7.32;;;2.20;;
67696;SDS011;54486;51.442;6.778;2023-07-16T14:06:13;7.45;;;2.20;;
67696;SDS011;54486;51.442;6.778;2023-07-16T14:08:40;6.77;;;1.80;;
67696;SDS011;54486;51.442;6.778;2023-07-16T14:11:07;8.05;;;2.13;;
67696;SDS011;54486;51.442;6.778;2023-07-16T14:13:34;7.10;;;2.00;;
67696;SDS011;54486;51.442;6.778;2023-07-16T14:16:02;6.55;;;1.88;;
67696;SDS011;54486;51.442;6.778;2023-07-16T14:18:30;6.47;;;1.95;;
67696;SDS011;54486;51.442;6.778;2023-07-16T14:20:57;7.97;;;2.03;;
67696;SDS011;54486;51.442;6.778;2023-07-16T14:23:24;7.78;;;2.00;;
67696;SDS011;54486;51.442;6.778;2023-07-16T14:25:52;6.93;;;1.90;;
67696;SDS011;54486;51.442;6.778;2023-07-16T14:28:19;9.52;;;2.00;;
67696;SDS011;54486;51.442;6.778;2023-07-16T14:30:46;6.30;;;1.77;;
67696;SDS011;54486;51.442;6.778;2023-07-16T14:33:13;6.80;;;1.77;;
67696;SDS011;54486;51.442;6.778;2023-07-16T14:35:40;7.15;;;1.98;;
67696;SDS011;54486;51.442;6.778;2023-07-16T14:38:07;6.25;;;1.73;;
67696;SDS011;54486;51.442;6.778;2023-07-16T14:40:34;7.15;;;1.95;;
67696;SDS011;54486;51.442;6.778;2023-07-16T14:43:03;7.50;;;1.90;;
67696;SDS011;54486;51.442;6.778;2023-07-16T14:45:31;7.30;;;1.90;;
67696;SDS011;54486;51.442;6.778;2023-07-16T14:48:00;7.10;;;1.90;;
67696;SDS011;54486;51.442;6.778;2023-07-16T14:50:27;7.93;;;1.90;;
67696;SDS011;54486;51.442;6.778;2023-07-16T14:52:54;8.23;;;2.10;;
67696;SDS011;54486;51.442;6.778;2023-07-16T14:55:21;6.80;;;1.83;;
67696;SDS011;54486;51.442;6.778;2023-07-16T14:57:49;7.53;;;2.00;;